sensor_id;sensor_type;location;lat;lon;timestamp;temperature;humidity
47805;DHT22;33568;45.286;9.900;2023-02-04T00:02:12;9.40;97.30
47805;DHT22;33568;45.286;9.900;2023-02-04T00:04:38;9.50;97.30
47805;DHT22;33568;45.286;9.900;2023-02-04T00:07:04;9.60;97.30
47805;DHT22;33568;45.286;9.900;2023-02-04T00:09:31;9.60;97.30
47805;DHT22;33568;45.286;9.900;2023-02-04T00:11:57;9.70;97.30
47805;DHT22;33568;45.286;9.900;2023-02-04T00:14:23;9.80;97.10
47805;DHT22;33568;45.286;9.900;2023-02-04T00:16:50;9.80;97.10
47805;DHT22;33568;45.286;9.900;2023-02-04T00:19:16;9.80;97.00
47805;DHT22;33568;45.286;9.900;2023-02-04T00:21:43;9.80;97.00
47805;DHT22;33568;45.286;9.900;2023-02-04T00:24:11;9.80;97.00
47805;DHT22;33568;45.286;9.900;2023-02-04T00:26:37;9.80;97.00
47805;DHT22;33568;45.286;9.900;2023-02-04T00:29:03;9.80;97.10
47805;DHT22;33568;45.286;9.900;2023-02-04T00:31:31;9.90;97.10
47805;DHT22;33568;45.286;9.900;2023-02-04T00:33:57;9.90;97.00
47805;DHT22;33568;45.286;9.900;2023-02-04T00:36:24;10.00;97.10
47805;DHT22;33568;45.286;9.900;2023-02-04T00:38:51;10.00;96.90
47805;DHT22;33568;45.286;9.900;2023-02-04T00:41:17;10.00;96.90
47805;DHT22;33568;45.286;9.900;2023-02-04T00:43:45;10.10;97.00
47805;DHT22;33568;45.286;9.900;2023-02-04T00:46:12;10.10;96.90
47805;DHT22;33568;45.286;9.900;2023-02-04T00:48:38;10.10;96.90
47805;DHT22;33568;45.286;9.900;2023-02-04T00:51:05;10.10;96.90
47805;DHT22;33568;45.286;9.900;2023-02-04T00:53:32;10.10;96.90
47805;DHT22;33568;45.286;9.900;2023-02-04T00:55:58;10.10;96.90
47805;DHT22;33568;45.286;9.900;2023-02-04T00:58:24;10.10;96.90
47805;DHT22;33568;45.286;9.900;2023-02-04T01:00:51;10.00;97.20
47805;DHT22;33568;45.286;9.900;2023-02-04T01:03:17;10.10;97.00
47805;DHT22;33568;45.286;9.900;2023-02-04T01:05:43;10.00;97.30
47805;DHT22;33568;45.286;9.900;2023-02-04T01:08:10;10.00;97.00
47805;DHT22;33568;45.286;9.900;2023-02-04T01:10:36;9.90;97.30
47805;DHT22;33568;45.286;9.900;2023-02-04T01:13:02;9.90;97.00
47805;DHT22;33568;45.286;9.900;2023-02-04T01:15:31;10.00;97.00
47805;DHT22;33568;45.286;9.900;2023-02-04T01:17:57;10.00;97.00
47805;DHT22;33568;45.286;9.900;2023-02-04T01:20:24;10.00;97.10
47805;DHT22;33568;45.286;9.900;2023-02-04T01:22:50;10.00;97.10
47805;DHT22;33568;45.286;9.900;2023-02-04T01:25:17;9.90;97.40
47805;DHT22;33568;45.286;9.900;2023-02-04T01:27:43;9.90;97.10
47805;DHT22;33568;45.286;9.900;2023-02-04T01:30:11;9.90;97.50
47805;DHT22;33568;45.286;9.900;2023-02-04T01:32:38;9.90;97.10
47805;DHT22;33568;45.286;9.900;2023-02-04T01:35:05;10.00;97.10
47805;DHT22;33568;45.286;9.900;2023-02-04T01:37:32;10.00;97.10
47805;DHT22;33568;45.286;9.900;2023-02-04T01:39:59;10.10;97.10
47805;DHT22;33568;45.286;9.900;2023-02-04T01:42:25;10.10;97.20
47805;DHT22;33568;45.286;9.900;2023-02-04T01:44:52;10.10;97.20
47805;DHT22;33568;45.286;9.900;2023-02-04T01:47:21;10.20;97.30
47805;DHT22;33568;45.286;9.900;2023-02-04T01:49:51;10.20;97.30
47805;DHT22;33568;45.286;9.900;2023-02-04T01:52:18;10.20;97.20
47805;DHT22;33568;45.286;9.900;2023-02-04T01:54:45;10.20;97.20
47805;DHT22;33568;45.286;9.900;2023-02-04T01:57:14;10.30;97.20
47805;DHT22;33568;45.286;9.900;2023-02-04T01:59:45;10.30;97.50
47805;DHT22;33568;45.286;9.900;2023-02-04T02:02:47;10.30;97.30
47805;DHT22;33568;45.286;9.900;2023-02-04T02:05:18;10.20;97.40
47805;DHT22;33568;45.286;9.900;2023-02-04T02:07:47;10.20;97.40
47805;DHT22;33568;45.286;9.900;2023-02-04T02:10:15;10.20;97.30
47805;DHT22;33568;45.286;9.900;2023-02-04T02:12:44;10.30;97.40
47805;DHT22;33568;45.286;9.900;2023-02-04T02:15:12;10.20;97.50
47805;DHT22;33568;45.286;9.900;2023-02-04T02:17:39;10.30;97.50
47805;DHT22;33568;45.286;9.900;2023-02-04T02:20:07;10.30;97.60
47805;DHT22;33568;45.286;9.900;2023-02-04T02:25:31;10.30;97.60
47805;DHT22;33568;45.286;9.900;2023-02-04T02:27:58;10.30;97.60
47805;DHT22;33568;45.286;9.900;2023-02-04T02:30:26;10.30;97.40
47805;DHT22;33568;45.286;9.900;2023-02-04T02:32:54;10.30;97.50
47805;DHT22;33568;45.286;9.900;2023-02-04T02:35:21;10.40;97.50
47805;DHT22;33568;45.286;9.900;2023-02-04T02:37:49;10.40;97.40
47805;DHT22;33568;45.286;9.900;2023-02-04T02:40:15;10.40;97.40
47805;DHT22;33568;45.286;9.900;2023-02-04T02:42:43;10.30;97.60
47805;DHT22;33568;45.286;9.900;2023-02-04T02:45:20;10.30;97.40
47805;DHT22;33568;45.286;9.900;2023-02-04T02:47:48;10.30;97.40
47805;DHT22;33568;45.286;9.900;2023-02-04T02:50:20;10.30;97.40
47805;DHT22;33568;45.286;9.900;2023-02-04T02:52:48;10.30;97.40
47805;DHT22;33568;45.286;9.900;2023-02-04T02:55:17;10.30;97.40
47805;DHT22;33568;45.286;9.900;2023-02-04T02:57:45;10.20;97.40
47805;DHT22;33568;45.286;9.900;2023-02-04T03:00:22;10.20;97.50
47805;DHT22;33568;45.286;9.900;2023-02-04T03:03:03;10.20;97.50
47805;DHT22;33568;45.286;9.900;2023-02-04T03:05:33;10.10;97.50
47805;DHT22;33568;45.286;9.900;2023-02-04T03:08:02;10.20;97.60
47805;DHT22;33568;45.286;9.900;2023-02-04T03:10:29;10.10;97.60
47805;DHT22;33568;45.286;9.900;2023-02-04T03:12:55;10.10;97.50
47805;DHT22;33568;45.286;9.900;2023-02-04T03:15:22;10.00;97.80
47805;DHT22;33568;45.286;9.900;2023-02-04T03:17:48;10.10;97.50
47805;DHT22;33568;45.286;9.900;2023-02-04T03:20:26;10.00;97.50
47805;DHT22;33568;45.286;9.900;2023-02-04T03:22:54;10.00;97.50
47805;DHT22;33568;45.286;9.900;2023-02-04T03:25:22;10.00;97.50
47805;DHT22;33568;45.286;9.900;2023-02-04T03:27:56;10.00;97.50
47805;DHT22;33568;45.286;9.900;2023-02-04T03:30:23;9.90;97.50
47805;DHT22;33568;45.286;9.900;2023-02-04T03:32:50;10.00;97.40
47805;DHT22;33568;45.286;9.900;2023-02-04T03:35:17;9.90;97.60
47805;DHT22;33568;45.286;9.900;2023-02-04T03:37:44;9.90;97.30
47805;DHT22;33568;45.286;9.900;2023-02-04T03:40:11;9.90;97.20
47805;DHT22;33568;45.286;9.900;2023-02-04T03:42:37;9.80;97.40
47805;DHT22;33568;45.286;9.900;2023-02-04T03:45:04;9.80;97.20
47805;DHT22;33568;45.286;9.900;2023-02-04T03:47:30;9.60;97.40
47805;DHT22;33568;45.286;9.900;2023-02-04T03:49:57;9.60;97.30
47805;DHT22;33568;45.286;9.900;2023-02-04T03:52:23;9.60;97.20
47805;DHT22;33568;45.286;9.900;2023-02-04T03:54:49;9.50;97.20
47805;DHT22;33568;45.286;9.900;2023-02-04T03:57:16;9.50;97.30
47805;DHT22;33568;45.286;9.900;2023-02-04T03:59:42;9.40;97.40
47805;DHT22;33568;45.286;9.900;2023-02-04T04:02:09;9.40;97.40
47805;DHT22;33568;45.286;9.900;2023-02-04T04:04:35;9.40;97.50
47805;DHT22;33568;45.286;9.900;2023-02-04T04:07:01;9.40;97.60
47805;DHT22;33568;45.286;9.900;2023-02-04T04:09:28;9.30;97.50
47805;DHT22;33568;45.286;9.900;2023-02-04T04:11:54;9.30;97.70
47805;DHT22;33568;45.286;9.900;2023-02-04T04:14:20;9.30;97.80
47805;DHT22;33568;45.286;9.900;2023-02-04T04:16:47;9.20;97.40
47805;DHT22;33568;45.286;9.900;2023-02-04T04:19:13;9.20;97.30
47805;DHT22;33568;45.286;9.900;2023-02-04T04:21:40;9.10;97.40
47805;DHT22;33568;45.286;9.900;2023-02-04T04:24:06;9.00;97.40
47805;DHT22;33568;45.286;9.900;2023-02-04T04:26:32;8.90;97.50
47805;DHT22;33568;45.286;9.900;2023-02-04T04:28:59;8.80;97.70
47805;DHT22;33568;45.286;9.900;2023-02-04T04:31:25;8.80;97.50
47805;DHT22;33568;45.286;9.900;2023-02-04T04:33:51;8.70;97.30
47805;DHT22;33568;45.286;9.900;2023-02-04T04:36:18;8.70;97.30
47805;DHT22;33568;45.286;9.900;2023-02-04T04:38:44;8.60;97.20
47805;DHT22;33568;45.286;9.900;2023-02-04T04:41:10;8.50;97.20
47805;DHT22;33568;45.286;9.900;2023-02-04T04:43:37;8.50;97.30
47805;DHT22;33568;45.286;9.900;2023-02-04T04:46:03;8.40;97.40
47805;DHT22;33568;45.286;9.900;2023-02-04T04:48:30;8.40;97.60
47805;DHT22;33568;45.286;9.900;2023-02-04T04:50:56;8.40;97.70
47805;DHT22;33568;45.286;9.900;2023-02-04T04:53:23;8.40;97.80
47805;DHT22;33568;45.286;9.900;2023-02-04T04:55:49;8.40;98.00
47805;DHT22;33568;45.286;9.900;2023-02-04T04:58:16;8.40;98.00
47805;DHT22;33568;45.286;9.900;2023-02-04T05:00:42;8.40;98.00
47805;DHT22;33568;45.286;9.900;2023-02-04T05:03:08;8.40;98.00
47805;DHT22;33568;45.286;9.900;2023-02-04T05:05:35;8.50;98.00
47805;DHT22;33568;45.286;9.900;2023-02-04T05:08:05;8.40;97.90
47805;DHT22;33568;45.286;9.900;2023-02-04T05:10:35;8.40;97.90
47805;DHT22;33568;45.286;9.900;2023-02-04T05:13:02;8.30;97.80
47805;DHT22;33568;45.286;9.900;2023-02-04T05:15:29;8.30;97.70
47805;DHT22;33568;45.286;9.900;2023-02-04T05:17:55;8.10;97.50
47805;DHT22;33568;45.286;9.900;2023-02-04T05:20:23;8.00;97.40
47805;DHT22;33568;45.286;9.900;2023-02-04T05:22:50;8.00;97.40
47805;DHT22;33568;45.286;9.900;2023-02-04T05:25:17;7.90;97.30
47805;DHT22;33568;45.286;9.900;2023-02-04T05:27:43;7.80;97.10
47805;DHT22;33568;45.286;9.900;2023-02-04T05:30:11;7.70;97.30
47805;DHT22;33568;45.286;9.900;2023-02-04T05:32:38;7.70;97.30
47805;DHT22;33568;45.286;9.900;2023-02-04T05:35:04;7.70;97.20
47805;DHT22;33568;45.286;9.900;2023-02-04T05:37:31;7.60;97.40
47805;DHT22;33568;45.286;9.900;2023-02-04T05:39:58;7.60;97.40
47805;DHT22;33568;45.286;9.900;2023-02-04T05:42:24;7.60;97.40
47805;DHT22;33568;45.286;9.900;2023-02-04T05:44:51;7.70;97.40
47805;DHT22;33568;45.286;9.900;2023-02-04T05:47:17;7.60;97.70
47805;DHT22;33568;45.286;9.900;2023-02-04T05:49:45;7.60;97.40
47805;DHT22;33568;45.286;9.900;2023-02-04T05:52:12;7.60;97.30
47805;DHT22;33568;45.286;9.900;2023-02-04T05:54:38;7.50;98.20
47805;DHT22;33568;45.286;9.900;2023-02-04T05:57:04;7.60;97.70
47805;DHT22;33568;45.286;9.900;2023-02-04T05:59:31;7.60;97.70
47805;DHT22;33568;45.286;9.900;2023-02-04T06:01:57;7.60;97.80
47805;DHT22;33568;45.286;9.900;2023-02-04T06:04:24;7.70;97.90
47805;DHT22;33568;45.286;9.900;2023-02-04T06:06:50;7.70;97.80
47805;DHT22;33568;45.286;9.900;2023-02-04T06:09:16;7.70;97.70
47805;DHT22;33568;45.286;9.900;2023-02-04T06:11:43;7.70;97.70
47805;DHT22;33568;45.286;9.900;2023-02-04T06:14:09;7.70;97.70
47805;DHT22;33568;45.286;9.900;2023-02-04T06:16:36;7.70;97.60
47805;DHT22;33568;45.286;9.900;2023-02-04T06:19:02;7.70;97.90
47805;DHT22;33568;45.286;9.900;2023-02-04T06:21:28;7.70;98.40
47805;DHT22;33568;45.286;9.900;2023-02-04T06:23:55;7.70;97.80
47805;DHT22;33568;45.286;9.900;2023-02-04T06:26:21;7.70;97.90
47805;DHT22;33568;45.286;9.900;2023-02-04T06:28:48;7.80;97.80
47805;DHT22;33568;45.286;9.900;2023-02-04T06:31:14;7.80;97.80
47805;DHT22;33568;45.286;9.900;2023-02-04T06:33:41;7.90;97.90
47805;DHT22;33568;45.286;9.900;2023-02-04T06:36:07;7.90;97.90
47805;DHT22;33568;45.286;9.900;2023-02-04T06:38:34;7.90;97.80
47805;DHT22;33568;45.286;9.900;2023-02-04T06:41:00;7.90;97.70
47805;DHT22;33568;45.286;9.900;2023-02-04T06:43:26;7.80;97.80
47805;DHT22;33568;45.286;9.900;2023-02-04T06:45:53;7.80;97.70
47805;DHT22;33568;45.286;9.900;2023-02-04T06:48:19;7.80;97.60
47805;DHT22;33568;45.286;9.900;2023-02-04T06:50:46;7.70;97.80
47805;DHT22;33568;45.286;9.900;2023-02-04T06:53:12;7.70;97.80
47805;DHT22;33568;45.286;9.900;2023-02-04T06:55:39;7.70;97.50
47805;DHT22;33568;45.286;9.900;2023-02-04T06:58:05;7.70;97.30
47805;DHT22;33568;45.286;9.900;2023-02-04T07:00:31;7.50;97.30
47805;DHT22;33568;45.286;9.900;2023-02-04T07:02:58;7.50;97.30
47805;DHT22;33568;45.286;9.900;2023-02-04T07:05:25;7.60;97.20
47805;DHT22;33568;45.286;9.900;2023-02-04T07:07:51;7.50;97.10
47805;DHT22;33568;45.286;9.900;2023-02-04T07:10:18;7.50;97.60
47805;DHT22;33568;45.286;9.900;2023-02-04T07:12:46;7.40;97.40
47805;DHT22;33568;45.286;9.900;2023-02-04T07:15:12;7.50;97.40
47805;DHT22;33568;45.286;9.900;2023-02-04T07:17:39;7.50;97.30
47805;DHT22;33568;45.286;9.900;2023-02-04T07:20:05;7.50;97.30
47805;DHT22;33568;45.286;9.900;2023-02-04T07:22:32;7.50;97.20
47805;DHT22;33568;45.286;9.900;2023-02-04T07:24:58;7.60;97.10
47805;DHT22;33568;45.286;9.900;2023-02-04T07:27:24;7.50;97.10
47805;DHT22;33568;45.286;9.900;2023-02-04T07:29:51;7.60;97.10
47805;DHT22;33568;45.286;9.900;2023-02-04T07:32:17;7.60;97.20
47805;DHT22;33568;45.286;9.900;2023-02-04T07:34:44;7.60;97.60
47805;DHT22;33568;45.286;9.900;2023-02-04T07:37:10;7.70;97.30
47805;DHT22;33568;45.286;9.900;2023-02-04T07:39:37;7.70;97.30
47805;DHT22;33568;45.286;9.900;2023-02-04T07:42:03;7.90;97.50
47805;DHT22;33568;45.286;9.900;2023-02-04T07:44:35;7.90;97.40
47805;DHT22;33568;45.286;9.900;2023-02-04T07:47:02;8.00;97.40
47805;DHT22;33568;45.286;9.900;2023-02-04T07:49:29;8.00;97.50
47805;DHT22;33568;45.286;9.900;2023-02-04T07:52:03;8.00;97.60
47805;DHT22;33568;45.286;9.900;2023-02-04T07:54:29;8.00;97.70
47805;DHT22;33568;45.286;9.900;2023-02-04T07:56:56;8.10;97.70
47805;DHT22;33568;45.286;9.900;2023-02-04T07:59:22;8.20;97.70
47805;DHT22;33568;45.286;9.900;2023-02-04T08:01:48;8.30;97.70
47805;DHT22;33568;45.286;9.900;2023-02-04T08:04:15;8.40;97.60
47805;DHT22;33568;45.286;9.900;2023-02-04T08:06:41;8.50;97.50
47805;DHT22;33568;45.286;9.900;2023-02-04T08:09:08;8.60;97.30
47805;DHT22;33568;45.286;9.900;2023-02-04T08:11:34;8.70;97.20
47805;DHT22;33568;45.286;9.900;2023-02-04T08:14:00;8.70;97.20
47805;DHT22;33568;45.286;9.900;2023-02-04T08:16:27;8.90;97.30
47805;DHT22;33568;45.286;9.900;2023-02-04T08:18:53;9.00;97.20
47805;DHT22;33568;45.286;9.900;2023-02-04T08:21:19;9.00;97.30
47805;DHT22;33568;45.286;9.900;2023-02-04T08:23:46;9.20;97.20
47805;DHT22;33568;45.286;9.900;2023-02-04T08:26:12;9.30;97.10
47805;DHT22;33568;45.286;9.900;2023-02-04T08:28:38;9.40;97.00
47805;DHT22;33568;45.286;9.900;2023-02-04T08:31:06;9.50;96.90
47805;DHT22;33568;45.286;9.900;2023-02-04T08:33:32;9.50;97.00
47805;DHT22;33568;45.286;9.900;2023-02-04T08:35:59;9.60;97.00
47805;DHT22;33568;45.286;9.900;2023-02-04T08:38:25;9.70;97.10
47805;DHT22;33568;45.286;9.900;2023-02-04T08:40:52;9.70;97.40
47805;DHT22;33568;45.286;9.900;2023-02-04T08:43:18;9.90;97.10
47805;DHT22;33568;45.286;9.900;2023-02-04T08:45:44;10.00;97.00
47805;DHT22;33568;45.286;9.900;2023-02-04T08:48:11;10.00;97.00
47805;DHT22;33568;45.286;9.900;2023-02-04T08:50:37;10.20;97.10
47805;DHT22;33568;45.286;9.900;2023-02-04T08:53:03;10.20;97.30
47805;DHT22;33568;45.286;9.900;2023-02-04T08:55:30;10.30;97.10
47805;DHT22;33568;45.286;9.900;2023-02-04T08:57:56;10.30;97.60
47805;DHT22;33568;45.286;9.900;2023-02-04T09:00:24;10.50;97.10
47805;DHT22;33568;45.286;9.900;2023-02-04T09:02:50;10.60;96.90
47805;DHT22;33568;45.286;9.900;2023-02-04T09:05:17;10.50;97.00
47805;DHT22;33568;45.286;9.900;2023-02-04T09:07:43;10.70;96.80
47805;DHT22;33568;45.286;9.900;2023-02-04T09:10:09;10.70;96.70
47805;DHT22;33568;45.286;9.900;2023-02-04T09:12:36;10.80;96.50
47805;DHT22;33568;45.286;9.900;2023-02-04T09:15:03;11.00;96.30
47805;DHT22;33568;45.286;9.900;2023-02-04T09:17:30;11.10;96.00
47805;DHT22;33568;45.286;9.900;2023-02-04T09:19:56;11.20;95.60
47805;DHT22;33568;45.286;9.900;2023-02-04T09:22:23;11.30;95.30
47805;DHT22;33568;45.286;9.900;2023-02-04T09:24:49;11.40;95.10
47805;DHT22;33568;45.286;9.900;2023-02-04T09:27:15;11.50;94.90
47805;DHT22;33568;45.286;9.900;2023-02-04T09:29:42;11.60;94.00
47805;DHT22;33568;45.286;9.900;2023-02-04T09:32:08;11.80;94.60
47805;DHT22;33568;45.286;9.900;2023-02-04T09:34:35;11.90;94.20
47805;DHT22;33568;45.286;9.900;2023-02-04T09:37:01;11.90;92.90
47805;DHT22;33568;45.286;9.900;2023-02-04T09:39:27;12.10;93.90
47805;DHT22;33568;45.286;9.900;2023-02-04T09:41:54;12.30;93.50
47805;DHT22;33568;45.286;9.900;2023-02-04T09:44:22;12.40;93.10
47805;DHT22;33568;45.286;9.900;2023-02-04T09:46:52;12.50;92.70
47805;DHT22;33568;45.286;9.900;2023-02-04T09:49:18;12.70;92.40
47805;DHT22;33568;45.286;9.900;2023-02-04T09:51:46;14.60;91.60
47805;DHT22;33568;45.286;9.900;2023-02-04T09:54:18;17.70;84.10
47805;DHT22;33568;45.286;9.900;2023-02-04T09:56:45;20.40;73.10
47805;DHT22;33568;45.286;9.900;2023-02-04T09:59:32;22.90;64.90
47805;DHT22;33568;45.286;9.900;2023-02-04T10:02:03;24.90;59.00
47805;DHT22;33568;45.286;9.900;2023-02-04T10:04:36;26.00;54.50
47805;DHT22;33568;45.286;9.900;2023-02-04T10:07:04;26.00;54.40
47805;DHT22;33568;45.286;9.900;2023-02-04T10:09:34;26.50;52.70
47805;DHT22;33568;45.286;9.900;2023-02-04T10:12:01;27.20;50.90
47805;DHT22;33568;45.286;9.900;2023-02-04T10:14:27;27.20;49.50
47805;DHT22;33568;45.286;9.900;2023-02-04T10:16:56;27.20;48.80
47805;DHT22;33568;45.286;9.900;2023-02-04T10:19:22;26.80;48.20
47805;DHT22;33568;45.286;9.900;2023-02-04T10:21:49;26.80;48.40
47805;DHT22;33568;45.286;9.900;2023-02-04T10:24:18;27.40;48.10
47805;DHT22;33568;45.286;9.900;2023-02-04T10:26:45;28.30;47.00
47805;DHT22;33568;45.286;9.900;2023-02-04T10:29:22;28.70;46.10
47805;DHT22;33568;45.286;9.900;2023-02-04T10:31:51;28.90;43.10
47805;DHT22;33568;45.286;9.900;2023-02-04T10:34:22;28.90;44.30
47805;DHT22;33568;45.286;9.900;2023-02-04T10:36:51;29.20;43.50
47805;DHT22;33568;45.286;9.900;2023-02-04T10:41:51;30.60;42.80
47805;DHT22;33568;45.286;9.900;2023-02-04T10:44:24;31.50;41.80
47805;DHT22;33568;45.286;9.900;2023-02-04T10:46:59;32.10;41.30
47805;DHT22;33568;45.286;9.900;2023-02-04T10:49:26;32.60;39.40
47805;DHT22;33568;45.286;9.900;2023-02-04T10:51:52;32.60;39.80
47805;DHT22;33568;45.286;9.900;2023-02-04T10:54:21;32.00;39.60
47805;DHT22;33568;45.286;9.900;2023-02-04T10:59:40;32.40;37.40
47805;DHT22;33568;45.286;9.900;2023-02-04T11:05:02;32.30;37.80
47805;DHT22;33568;45.286;9.900;2023-02-04T11:07:29;32.70;38.80
47805;DHT22;33568;45.286;9.900;2023-02-04T11:09:56;33.30;38.20
47805;DHT22;33568;45.286;9.900;2023-02-04T11:15:01;34.40;35.40
47805;DHT22;33568;45.286;9.900;2023-02-04T11:17:29;34.70;36.60
47805;DHT22;33568;45.286;9.900;2023-02-04T11:19:57;34.00;36.70
47805;DHT22;33568;45.286;9.900;2023-02-04T11:22:45;34.20;36.50
47805;DHT22;33568;45.286;9.900;2023-02-04T11:25:32;33.80;35.20
47805;DHT22;33568;45.286;9.900;2023-02-04T11:27:59;34.60;35.00
47805;DHT22;33568;45.286;9.900;2023-02-04T11:30:31;35.30;35.70
47805;DHT22;33568;45.286;9.900;2023-02-04T11:33:03;35.80;34.70
47805;DHT22;33568;45.286;9.900;2023-02-04T11:35:31;36.20;34.50
47805;DHT22;33568;45.286;9.900;2023-02-04T11:37:57;36.50;34.60
47805;DHT22;33568;45.286;9.900;2023-02-04T11:40:37;36.20;34.40
47805;DHT22;33568;45.286;9.900;2023-02-04T11:43:12;36.10;33.40
47805;DHT22;33568;45.286;9.900;2023-02-04T11:45:40;36.50;33.60
47805;DHT22;33568;45.286;9.900;2023-02-04T11:48:14;36.80;34.10
47805;DHT22;33568;45.286;9.900;2023-02-04T11:50:41;37.00;33.20
47805;DHT22;33568;45.286;9.900;2023-02-04T11:53:10;37.40;33.50
47805;DHT22;33568;45.286;9.900;2023-02-04T11:55:44;37.30;33.30
47805;DHT22;33568;45.286;9.900;2023-02-04T11:58:15;37.10;32.30
47805;DHT22;33568;45.286;9.900;2023-02-04T12:00:42;36.30;33.20
47805;DHT22;33568;45.286;9.900;2023-02-04T12:03:44;35.70;33.90
47805;DHT22;33568;45.286;9.900;2023-02-04T12:06:20;36.10;32.70
47805;DHT22;33568;45.286;9.900;2023-02-04T12:08:47;36.50;32.80
47805;DHT22;33568;45.286;9.900;2023-02-04T12:11:31;35.80;33.60
47805;DHT22;33568;45.286;9.900;2023-02-04T12:14:09;36.00;33.20
47805;DHT22;33568;45.286;9.900;2023-02-04T12:16:45;35.50;32.80
47805;DHT22;33568;45.286;9.900;2023-02-04T12:19:12;35.20;33.10
47805;DHT22;33568;45.286;9.900;2023-02-04T12:21:39;35.20;33.40
47805;DHT22;33568;45.286;9.900;2023-02-04T12:24:06;34.60;33.60
47805;DHT22;33568;45.286;9.900;2023-02-04T12:26:32;34.80;33.60
47805;DHT22;33568;45.286;9.900;2023-02-04T12:28:59;35.60;33.20
47805;DHT22;33568;45.286;9.900;2023-02-04T12:31:28;35.50;32.70
47805;DHT22;33568;45.286;9.900;2023-02-04T12:33:55;34.70;32.90
47805;DHT22;33568;45.286;9.900;2023-02-04T12:36:22;34.80;33.20
47805;DHT22;33568;45.286;9.900;2023-02-04T12:38:49;34.90;32.70
47805;DHT22;33568;45.286;9.900;2023-02-04T12:41:16;32.20;33.60
47805;DHT22;33568;45.286;9.900;2023-02-04T12:43:44;29.30;35.50
47805;DHT22;33568;45.286;9.900;2023-02-04T12:46:10;26.90;37.40
47805;DHT22;33568;45.286;9.900;2023-02-04T12:48:37;25.00;39.30
47805;DHT22;33568;45.286;9.900;2023-02-04T12:51:06;23.40;41.00
47805;DHT22;33568;45.286;9.900;2023-02-04T12:53:33;21.90;42.40
47805;DHT22;33568;45.286;9.900;2023-02-04T12:56:00;20.90;44.20
47805;DHT22;33568;45.286;9.900;2023-02-04T12:58:26;20.20;45.30
47805;DHT22;33568;45.286;9.900;2023-02-04T13:00:53;19.70;46.00
47805;DHT22;33568;45.286;9.900;2023-02-04T13:03:19;19.20;47.90
47805;DHT22;33568;45.286;9.900;2023-02-04T13:05:46;19.00;47.40
47805;DHT22;33568;45.286;9.900;2023-02-04T13:08:12;18.70;48.20
47805;DHT22;33568;45.286;9.900;2023-02-04T13:10:38;18.50;49.70
47805;DHT22;33568;45.286;9.900;2023-02-04T13:13:04;18.30;49.20
47805;DHT22;33568;45.286;9.900;2023-02-04T13:15:31;18.00;51.70
47805;DHT22;33568;45.286;9.900;2023-02-04T13:17:57;18.00;50.40
47805;DHT22;33568;45.286;9.900;2023-02-04T13:20:23;17.80;52.60
47805;DHT22;33568;45.286;9.900;2023-02-04T13:22:50;17.80;51.30
47805;DHT22;33568;45.286;9.900;2023-02-04T13:25:16;17.60;53.60
47805;DHT22;33568;45.286;9.900;2023-02-04T13:27:43;17.60;52.10
47805;DHT22;33568;45.286;9.900;2023-02-04T13:30:10;17.70;52.70
47805;DHT22;33568;45.286;9.900;2023-02-04T13:32:38;17.70;52.90
47805;DHT22;33568;45.286;9.900;2023-02-04T13:35:06;17.70;52.70
47805;DHT22;33568;45.286;9.900;2023-02-04T13:37:32;17.70;52.70
47805;DHT22;33568;45.286;9.900;2023-02-04T13:39:59;17.70;52.80
47805;DHT22;33568;45.286;9.900;2023-02-04T13:42:25;17.50;53.40
47805;DHT22;33568;45.286;9.900;2023-02-04T13:44:51;17.60;52.90
47805;DHT22;33568;45.286;9.900;2023-02-04T13:47:20;17.50;53.40
47805;DHT22;33568;45.286;9.900;2023-02-04T13:49:47;17.50;53.00
47805;DHT22;33568;45.286;9.900;2023-02-04T13:52:13;17.50;53.20
47805;DHT22;33568;45.286;9.900;2023-02-04T13:54:39;17.50;53.30
47805;DHT22;33568;45.286;9.900;2023-02-04T13:57:06;17.40;54.00
47805;DHT22;33568;45.286;9.900;2023-02-04T13:59:32;17.50;53.60
47805;DHT22;33568;45.286;9.900;2023-02-04T14:01:58;17.40;53.50
47805;DHT22;33568;45.286;9.900;2023-02-04T14:04:25;17.40;53.40
47805;DHT22;33568;45.286;9.900;2023-02-04T14:06:52;17.30;53.60
47805;DHT22;33568;45.286;9.900;2023-02-04T14:09:20;17.40;53.40
47805;DHT22;33568;45.286;9.900;2023-02-04T14:11:46;17.50;53.40
47805;DHT22;33568;45.286;9.900;2023-02-04T14:14:13;17.50;53.70
47805;DHT22;33568;45.286;9.900;2023-02-04T14:16:39;17.50;54.10
47805;DHT22;33568;45.286;9.900;2023-02-04T14:19:06;17.50;54.30
47805;DHT22;33568;45.286;9.900;2023-02-04T14:21:32;17.50;55.20
47805;DHT22;33568;45.286;9.900;2023-02-04T14:23:59;17.60;54.40
47805;DHT22;33568;45.286;9.900;2023-02-04T14:26:26;17.50;54.20
47805;DHT22;33568;45.286;9.900;2023-02-04T14:28:52;17.50;54.20
47805;DHT22;33568;45.286;9.900;2023-02-04T14:31:19;17.40;54.60
47805;DHT22;33568;45.286;9.900;2023-02-04T14:33:45;17.30;54.60
47805;DHT22;33568;45.286;9.900;2023-02-04T14:36:12;17.40;55.00
47805;DHT22;33568;45.286;9.900;2023-02-04T14:38:38;17.30;56.00
47805;DHT22;33568;45.286;9.900;2023-02-04T14:41:04;17.40;55.40
47805;DHT22;33568;45.286;9.900;2023-02-04T14:43:31;17.40;56.30
47805;DHT22;33568;45.286;9.900;2023-02-04T14:46:04;17.40;57.00
47805;DHT22;33568;45.286;9.900;2023-02-04T14:48:31;17.40;56.10
47805;DHT22;33568;45.286;9.900;2023-02-04T14:50:57;17.40;56.20
47805;DHT22;33568;45.286;9.900;2023-02-04T14:53:24;17.40;56.60
47805;DHT22;33568;45.286;9.900;2023-02-04T14:55:50;17.30;58.20
47805;DHT22;33568;45.286;9.900;2023-02-04T14:58:16;17.30;57.30
47805;DHT22;33568;45.286;9.900;2023-02-04T15:00:43;17.20;58.30
47805;DHT22;33568;45.286;9.900;2023-02-04T15:03:09;17.30;57.60
47805;DHT22;33568;45.286;9.900;2023-02-04T15:05:36;17.20;58.90
47805;DHT22;33568;45.286;9.900;2023-02-04T15:08:02;17.20;57.90
47805;DHT22;33568;45.286;9.900;2023-02-04T15:10:29;17.20;59.70
47805;DHT22;33568;45.286;9.900;2023-02-04T15:12:56;17.20;58.50
47805;DHT22;33568;45.286;9.900;2023-02-04T15:15:22;17.10;61.00
47805;DHT22;33568;45.286;9.900;2023-02-04T15:17:49;17.20;59.20
47805;DHT22;33568;45.286;9.900;2023-02-04T15:20:16;17.10;60.60
47805;DHT22;33568;45.286;9.900;2023-02-04T15:22:42;17.10;60.00
47805;DHT22;33568;45.286;9.900;2023-02-04T15:25:09;17.10;59.70
47805;DHT22;33568;45.286;9.900;2023-02-04T15:27:35;17.00;60.40
47805;DHT22;33568;45.286;9.900;2023-02-04T15:30:01;17.00;59.50
47805;DHT22;33568;45.286;9.900;2023-02-04T15:32:28;16.90;59.80
47805;DHT22;33568;45.286;9.900;2023-02-04T15:34:54;16.90;59.60
47805;DHT22;33568;45.286;9.900;2023-02-04T15:37:21;16.80;61.10
47805;DHT22;33568;45.286;9.900;2023-02-04T15:39:47;16.70;60.20
47805;DHT22;33568;45.286;9.900;2023-02-04T15:42:13;16.70;60.90
47805;DHT22;33568;45.286;9.900;2023-02-04T15:44:40;16.60;61.70
47805;DHT22;33568;45.286;9.900;2023-02-04T15:47:06;16.40;65.10
47805;DHT22;33568;45.286;9.900;2023-02-04T15:49:33;16.40;63.10
47805;DHT22;33568;45.286;9.900;2023-02-04T15:52:00;16.20;66.60
47805;DHT22;33568;45.286;9.900;2023-02-04T15:54:27;16.10;64.20